createdAt,value
2019-03-13T00:02:30.010Z,9.70
2019-03-13T00:04:59.375Z,9.60
2019-03-13T00:07:29.024Z,9.70
2019-03-13T00:09:58.492Z,9.70
2019-03-13T00:12:27.890Z,9.70
2019-03-13T00:14:57.231Z,9.70
2019-03-13T00:17:26.641Z,9.80
2019-03-13T00:19:55.902Z,10.00
2019-03-13T00:22:25.329Z,9.90
2019-03-13T00:24:56.287Z,10.10
2019-03-13T00:27:26.118Z,10.00
2019-03-13T00:29:55.809Z,10.10
2019-03-13T00:32:25.244Z,10.10
2019-03-13T00:34:54.705Z,10.20
2019-03-13T00:37:24.055Z,10.30
2019-03-13T00:39:53.362Z,10.20
2019-03-13T00:42:22.774Z,10.40
2019-03-13T00:44:52.207Z,10.00
2019-03-13T00:47:21.789Z,10.10
2019-03-13T00:49:53.261Z,10.40
2019-03-13T00:52:22.614Z,10.20
2019-03-13T00:54:51.939Z,10.30
2019-03-13T00:57:21.200Z,10.20
2019-03-13T00:59:50.462Z,10.30
2019-03-13T01:02:35.734Z,10.30
2019-03-13T01:05:27.539Z,10.20
2019-03-13T01:07:56.832Z,10.10
2019-03-13T01:10:26.224Z,10.30
2019-03-13T01:12:55.542Z,10.50
2019-03-13T01:15:24.832Z,10.40
2019-03-13T01:17:54.109Z,10.30
2019-03-13T01:20:23.362Z,10.20
2019-03-13T01:22:52.696Z,10.20
2019-03-13T01:25:22.009Z,10.30
2019-03-13T01:27:51.277Z,10.50
2019-03-13T01:30:21.019Z,10.50
2019-03-13T01:32:52.594Z,10.70
2019-03-13T01:35:32.369Z,10.60
2019-03-13T01:38:01.714Z,10.30
2019-03-13T01:40:31.019Z,10.20
2019-03-13T01:43:00.387Z,10.30
2019-03-13T01:45:29.674Z,10.30
2019-03-13T01:48:01.362Z,10.50
2019-03-13T01:50:30.623Z,10.30
2019-03-13T01:53:02.895Z,10.50
2019-03-13T01:55:32.202Z,10.60
2019-03-13T01:58:01.798Z,10.90
2019-03-13T02:00:31.135Z,10.70
2019-03-13T02:03:00.745Z,10.70
2019-03-13T02:05:30.109Z,10.70
2019-03-13T02:07:59.656Z,10.40
2019-03-13T02:10:29.052Z,10.30
2019-03-13T02:12:58.455Z,10.40
2019-03-13T02:15:27.875Z,10.50
2019-03-13T02:17:57.211Z,10.50
2019-03-13T02:20:26.805Z,10.30
2019-03-13T02:22:56.061Z,10.50
2019-03-13T02:25:25.376Z,10.40
2019-03-13T02:27:54.639Z,10.30
2019-03-13T02:30:25.266Z,10.30
2019-03-13T02:32:54.628Z,10.40
2019-03-13T02:35:24.061Z,10.60
2019-03-13T02:37:53.358Z,10.50
2019-03-13T02:40:22.726Z,10.50
2019-03-13T02:42:51.969Z,10.40
2019-03-13T02:45:21.346Z,10.40
2019-03-13T02:47:50.653Z,10.40
2019-03-13T02:50:20.053Z,10.80
2019-03-13T02:52:49.312Z,10.80
2019-03-13T02:55:18.655Z,10.90
2019-03-13T02:57:48.146Z,11.00
2019-03-13T03:00:20.151Z,10.90
2019-03-13T03:02:55.475Z,10.90
2019-03-13T03:05:25.187Z,10.80
2019-03-13T03:07:54.469Z,10.60
2019-03-13T03:10:23.834Z,10.80
2019-03-13T03:12:53.105Z,10.60
2019-03-13T03:15:22.696Z,10.30
2019-03-13T03:17:52.346Z,10.50
2019-03-13T03:20:21.759Z,10.50
2019-03-13T03:22:51.290Z,10.70
2019-03-13T03:25:20.748Z,10.60
2019-03-13T03:27:50.019Z,10.50
2019-03-13T03:30:21.363Z,10.40
2019-03-13T03:32:50.696Z,10.60
2019-03-13T03:35:20.007Z,10.60
2019-03-13T03:37:49.370Z,10.60
2019-03-13T03:40:22.302Z,10.60
2019-03-13T03:42:50.214Z,10.70
2019-03-13T03:45:19.493Z,10.60
2019-03-13T03:47:48.821Z,10.70
2019-03-13T03:50:18.399Z,10.80
2019-03-13T03:52:47.755Z,10.80
2019-03-13T03:55:17.359Z,10.80
2019-03-13T03:57:46.858Z,10.60
2019-03-13T04:00:16.589Z,10.50
2019-03-13T04:02:45.892Z,10.60
2019-03-13T04:05:15.515Z,10.70
2019-03-13T04:07:45.029Z,10.90
2019-03-13T04:10:14.319Z,10.90
2019-03-13T04:12:44.180Z,10.70
2019-03-13T04:15:13.527Z,10.60
2019-03-13T04:18:01.891Z,10.60
2019-03-13T04:20:31.203Z,10.50
2019-03-13T04:23:00.461Z,10.80
2019-03-13T04:25:32.328Z,10.80
2019-03-13T04:28:01.935Z,10.60
2019-03-13T04:30:31.385Z,10.50
2019-03-13T04:33:00.636Z,10.40
2019-03-13T04:35:29.991Z,10.80
2019-03-13T04:37:59.276Z,10.90
2019-03-13T04:40:34.471Z,10.80
2019-03-13T04:43:03.787Z,10.80
2019-03-13T04:45:33.153Z,10.90
2019-03-13T04:48:02.382Z,10.70
2019-03-13T04:50:31.756Z,10.50
2019-03-13T04:53:01.006Z,10.70
2019-03-13T04:55:30.434Z,10.70
2019-03-13T04:57:59.806Z,10.60
2019-03-13T05:00:29.094Z,10.60
2019-03-13T05:02:58.526Z,10.80
2019-03-13T05:06:08.752Z,10.80
2019-03-13T05:09:05.703Z,11.00
2019-03-13T05:11:35.302Z,10.80
2019-03-13T05:14:04.674Z,10.70
2019-03-13T05:16:33.941Z,10.90
2019-03-13T05:19:03.204Z,10.80
2019-03-13T05:21:32.606Z,10.80
2019-03-13T05:24:01.942Z,10.80
2019-03-13T05:26:31.376Z,10.80
2019-03-13T05:29:00.727Z,10.80
2019-03-13T05:31:29.995Z,10.70
2019-03-13T05:33:59.413Z,10.70
2019-03-13T05:36:28.650Z,10.80
2019-03-13T05:38:57.946Z,10.70
2019-03-13T05:41:27.469Z,10.70
2019-03-13T05:43:56.806Z,10.80
2019-03-13T05:46:26.266Z,10.90
2019-03-13T05:48:55.589Z,10.90
2019-03-13T05:51:25.030Z,10.70
2019-03-13T05:53:54.499Z,10.40
2019-03-13T05:56:24.209Z,10.50
2019-03-13T05:58:53.514Z,10.50
2019-03-13T06:01:22.812Z,10.80
2019-03-13T06:03:52.448Z,10.90
2019-03-13T06:06:21.829Z,10.70
2019-03-13T06:08:51.171Z,10.70
2019-03-13T06:11:21.414Z,10.80
2019-03-13T06:13:51.116Z,11.00
2019-03-13T06:16:20.464Z,11.00
2019-03-13T06:18:52.790Z,10.80
2019-03-13T06:21:20.970Z,10.80
2019-03-13T06:23:50.676Z,10.70
2019-03-13T06:26:20.038Z,10.80
2019-03-13T06:28:49.472Z,10.90
2019-03-13T06:31:18.890Z,10.90
2019-03-13T06:33:48.290Z,11.00
2019-03-13T06:36:17.582Z,10.90
2019-03-13T06:38:46.908Z,10.70
2019-03-13T06:41:16.214Z,10.90
2019-03-13T06:43:45.489Z,10.80
2019-03-13T06:46:14.822Z,10.70
2019-03-13T06:48:44.083Z,10.80
2019-03-13T06:51:13.715Z,10.80
2019-03-13T06:53:44.143Z,10.90
2019-03-13T06:56:13.532Z,10.90
2019-03-13T06:59:04.581Z,10.90
2019-03-13T07:01:55.667Z,10.90
2019-03-13T07:04:49.893Z,10.90
2019-03-13T07:07:47.342Z,10.70
2019-03-13T07:10:53.712Z,10.70
2019-03-13T07:13:35.231Z,10.80
2019-03-13T07:16:12.583Z,10.90
2019-03-13T07:18:59.597Z,10.90
2019-03-13T07:21:50.683Z,10.80
2019-03-13T07:24:37.828Z,10.90
2019-03-13T07:27:38.170Z,11.00
2019-03-13T07:30:41.972Z,11.00
2019-03-13T07:33:26.981Z,10.90
2019-03-13T07:36:30.266Z,10.60
2019-03-13T07:39:36.476Z,10.80
2019-03-13T07:42:17.188Z,11.00
2019-03-13T07:45:04.086Z,11.00
2019-03-13T07:47:44.722Z,11.00
2019-03-13T07:50:32.995Z,11.20
2019-03-13T07:53:24.075Z,11.20
2019-03-13T07:56:05.470Z,11.20
2019-03-13T07:58:53.703Z,11.10
2019-03-13T08:01:34.023Z,11.00
2019-03-13T08:04:22.247Z,11.10
2019-03-13T08:07:10.473Z,11.00
2019-03-13T08:10:10.913Z,11.10
2019-03-13T08:13:06.888Z,11.20
2019-03-13T08:15:55.163Z,11.20
2019-03-13T08:18:55.270Z,11.20
2019-03-13T08:21:58.486Z,11.20
2019-03-13T08:24:46.828Z,11.30
2019-03-13T08:27:24.214Z,11.20
2019-03-13T08:30:15.207Z,11.20
2019-03-13T08:33:03.516Z,11.10
2019-03-13T08:35:39.061Z,11.00
2019-03-13T08:38:21.421Z,11.60
2019-03-13T08:41:21.482Z,12.00
2019-03-13T08:44:12.725Z,12.60
2019-03-13T08:47:09.984Z,12.80
2019-03-13T08:50:03.894Z,13.10
2019-03-13T08:52:58.333Z,13.10
2019-03-13T08:55:34.445Z,13.40
2019-03-13T08:58:12.109Z,13.60
2019-03-13T09:01:18.814Z,13.60
2019-03-13T09:04:07.055Z,13.60
2019-03-13T09:06:53.338Z,13.50
2019-03-13T09:09:42.398Z,13.50
2019-03-13T09:12:27.629Z,13.60
2019-03-13T09:15:16.125Z,13.90
2019-03-13T09:18:10.411Z,14.20
2019-03-13T09:21:13.762Z,14.40
2019-03-13T09:23:49.275Z,14.10
2019-03-13T09:26:37.359Z,14.10
2019-03-13T09:29:37.976Z,14.40
2019-03-13T09:32:26.792Z,14.30
2019-03-13T09:35:13.958Z,14.30
2019-03-13T09:38:01.102Z,14.10
2019-03-13T09:40:49.826Z,14.30
2019-03-13T09:43:39.449Z,14.30
2019-03-13T09:46:20.979Z,14.40
2019-03-13T09:49:01.987Z,14.00
2019-03-13T09:51:40.820Z,14.20
2019-03-13T09:54:28.893Z,13.90
2019-03-13T09:57:15.755Z,13.90
2019-03-13T09:59:56.604Z,14.00
2019-03-13T10:02:40.874Z,13.90
2019-03-13T10:05:34.884Z,13.60
2019-03-13T10:08:23.460Z,13.30
2019-03-13T10:11:12.156Z,13.30
2019-03-13T10:14:00.148Z,13.10
2019-03-13T10:16:47.199Z,12.90
2019-03-13T10:19:27.813Z,12.70
2019-03-13T10:22:13.142Z,12.90
2019-03-13T10:24:52.340Z,12.80
2019-03-13T10:27:32.440Z,12.40
2019-03-13T10:30:09.775Z,12.20
2019-03-13T10:32:56.954Z,12.60
2019-03-13T10:35:49.510Z,12.60
2019-03-13T10:38:37.908Z,12.70
2019-03-13T10:41:38.334Z,12.90
2019-03-13T10:44:19.728Z,13.20
2019-03-13T10:47:10.839Z,13.40
2019-03-13T10:49:59.203Z,13.60
2019-03-13T10:53:02.859Z,12.90
2019-03-13T10:55:51.152Z,13.00
2019-03-13T10:58:28.829Z,13.00
2019-03-13T11:01:13.166Z,13.10
2019-03-13T11:04:06.764Z,13.00
2019-03-13T11:06:55.323Z,12.90
2019-03-13T11:09:41.433Z,12.80
2019-03-13T11:12:28.205Z,13.30
2019-03-13T11:15:11.048Z,13.40
2019-03-13T11:17:58.659Z,13.20
2019-03-13T11:20:52.940Z,13.40
2019-03-13T11:23:47.263Z,13.40
2019-03-13T11:26:50.611Z,13.40
2019-03-13T11:29:26.180Z,13.20
2019-03-13T11:32:20.546Z,13.40
2019-03-13T11:34:57.340Z,13.40
2019-03-13T11:37:49.085Z,13.70
2019-03-13T11:40:40.670Z,14.00
2019-03-13T11:43:19.408Z,14.10
2019-03-13T11:46:06.827Z,14.10
2019-03-13T11:48:47.700Z,13.90
2019-03-13T11:51:39.431Z,13.70
2019-03-13T11:54:18.259Z,14.00
2019-03-13T11:57:06.765Z,14.10
2019-03-13T11:59:53.957Z,14.00
2019-03-13T12:02:40.880Z,14.00
2019-03-13T12:05:20.114Z,14.10
2019-03-13T12:08:05.457Z,14.20
2019-03-13T12:10:42.384Z,14.40
2019-03-13T12:13:25.457Z,14.60
2019-03-13T12:16:02.463Z,14.70
2019-03-13T12:18:38.380Z,14.40
2019-03-13T12:21:26.694Z,14.60
2019-03-13T12:24:16.604Z,15.00
2019-03-13T12:27:13.934Z,15.10
2019-03-13T12:30:02.721Z,15.00
2019-03-13T12:32:49.830Z,15.20
2019-03-13T12:35:25.480Z,15.30
2019-03-13T12:38:09.727Z,15.20
2019-03-13T12:40:50.706Z,15.20
2019-03-13T12:43:43.819Z,15.30
2019-03-13T12:46:21.428Z,15.30
2019-03-13T12:49:24.901Z,15.00
2019-03-13T12:52:02.307Z,14.90
2019-03-13T12:55:08.501Z,14.90
2019-03-13T12:58:05.674Z,14.70
2019-03-13T13:00:54.622Z,14.90
2019-03-13T13:03:41.765Z,14.90
2019-03-13T13:06:36.392Z,15.00
2019-03-13T13:09:15.781Z,15.00
2019-03-13T13:11:57.574Z,14.90
2019-03-13T13:15:04.032Z,14.90
2019-03-13T13:17:50.672Z,14.90
2019-03-13T13:20:20.175Z,15.00
2019-03-13T13:22:49.426Z,15.10
2019-03-13T13:25:18.818Z,15.00
2019-03-13T13:27:48.156Z,15.00
2019-03-13T13:30:17.870Z,15.00
2019-03-13T13:32:47.256Z,14.90
2019-03-13T13:35:16.843Z,15.00
2019-03-13T13:37:46.268Z,15.00
2019-03-13T13:40:15.890Z,15.10
2019-03-13T13:42:45.230Z,15.10
2019-03-13T13:46:09.520Z,15.00
2019-03-13T13:48:38.910Z,15.00
2019-03-13T13:51:08.219Z,15.00
2019-03-13T13:53:37.478Z,15.00
2019-03-13T13:56:06.948Z,15.00
2019-03-13T13:58:36.176Z,15.10
2019-03-13T14:01:05.614Z,15.00
2019-03-13T14:03:34.949Z,15.00
2019-03-13T14:06:04.535Z,15.00
2019-03-13T14:08:33.866Z,15.00
2019-03-13T14:11:03.253Z,15.10
2019-03-13T14:13:32.542Z,15.10
2019-03-13T14:16:02.083Z,15.20
2019-03-13T14:18:31.385Z,15.30
2019-03-13T14:21:00.800Z,15.30
2019-03-13T14:23:30.319Z,15.20
2019-03-13T14:25:59.869Z,15.40
2019-03-13T14:28:29.223Z,15.50
2019-03-13T14:30:58.721Z,15.50
2019-03-13T14:33:28.297Z,15.40
2019-03-13T14:35:57.669Z,15.40
2019-03-13T14:38:27.035Z,15.30
2019-03-13T14:40:56.304Z,15.30
2019-03-13T14:43:25.671Z,15.30
2019-03-13T14:45:54.929Z,15.30
2019-03-13T14:48:24.339Z,15.30
2019-03-13T14:50:53.618Z,15.30
2019-03-13T14:53:23.165Z,15.20
2019-03-13T14:55:55.530Z,15.10
2019-03-13T14:58:23.498Z,15.10
2019-03-13T15:00:52.696Z,15.00
2019-03-13T15:03:22.043Z,14.90
2019-03-13T15:05:51.296Z,14.90
2019-03-13T15:08:20.487Z,14.70
2019-03-13T15:10:49.780Z,14.80
2019-03-13T15:13:19.099Z,14.80
2019-03-13T15:15:48.674Z,14.90
2019-03-13T15:18:18.172Z,14.90
2019-03-13T15:20:47.597Z,14.80
2019-03-13T15:23:17.077Z,14.80
2019-03-13T15:25:46.582Z,14.80
2019-03-13T15:28:17.472Z,14.80
2019-03-13T15:30:47.230Z,14.80
2019-03-13T15:33:16.476Z,14.80
2019-03-13T15:35:45.900Z,14.70
2019-03-13T15:38:15.499Z,14.70
2019-03-13T15:40:45.855Z,14.80
2019-03-13T15:43:15.580Z,14.70
2019-03-13T15:45:44.927Z,14.80
2019-03-13T15:48:14.238Z,14.80
2019-03-13T15:50:43.550Z,14.80
2019-03-13T15:53:12.819Z,14.90
2019-03-13T15:55:42.245Z,15.00
2019-03-13T15:58:11.638Z,15.00
2019-03-13T16:00:40.991Z,15.00
2019-03-13T16:03:10.216Z,15.10
2019-03-13T16:05:39.527Z,15.10
2019-03-13T16:08:08.970Z,15.10
2019-03-13T16:10:38.336Z,15.20
2019-03-13T16:13:07.626Z,15.20
2019-03-13T16:15:38.008Z,15.10
2019-03-13T16:18:07.518Z,15.00
2019-03-13T16:20:36.994Z,15.00
2019-03-13T16:23:06.281Z,15.00
2019-03-13T16:25:35.613Z,15.00
2019-03-13T16:28:04.914Z,15.00
2019-03-13T16:30:37.848Z,14.90
2019-03-13T16:33:07.158Z,14.90
2019-03-13T16:35:36.523Z,14.80
2019-03-13T16:38:05.856Z,14.90
2019-03-13T16:40:35.107Z,14.90
2019-03-13T16:43:04.576Z,14.90
2019-03-13T16:45:34.148Z,14.80
2019-03-13T16:48:03.502Z,14.80
2019-03-13T16:50:32.899Z,14.80
2019-03-13T16:53:02.188Z,14.80
2019-03-13T16:55:31.504Z,14.80
2019-03-13T16:58:00.813Z,14.70
2019-03-13T17:00:50.609Z,14.70
2019-03-13T17:03:20.358Z,14.70
2019-03-13T17:05:51.292Z,14.70
2019-03-13T17:08:20.542Z,14.80
2019-03-13T17:10:49.891Z,14.80
2019-03-13T17:13:19.657Z,14.80
2019-03-13T17:15:48.953Z,14.80
2019-03-13T17:18:18.664Z,14.70
2019-03-13T17:20:48.028Z,14.70
2019-03-13T17:23:17.380Z,14.80
2019-03-13T17:25:46.768Z,14.80
2019-03-13T17:28:16.406Z,14.70
2019-03-13T17:30:45.673Z,14.80
2019-03-13T17:33:15.021Z,14.90
2019-03-13T17:35:44.337Z,14.90
2019-03-13T17:38:13.625Z,14.90
2019-03-13T17:40:43.603Z,15.10
2019-03-13T17:43:12.890Z,15.20
2019-03-13T17:45:42.482Z,15.10
2019-03-13T17:48:11.853Z,15.10
2019-03-13T17:50:41.174Z,15.10
2019-03-13T17:53:10.459Z,15.00
2019-03-13T17:55:39.884Z,14.90
2019-03-13T17:58:09.261Z,15.00
2019-03-13T18:00:44.963Z,15.00
2019-03-13T18:03:14.299Z,15.00
2019-03-13T18:05:43.603Z,14.80
2019-03-13T18:08:12.925Z,14.80
2019-03-13T18:10:42.333Z,14.80
2019-03-13T18:13:11.643Z,14.70
2019-03-13T18:15:41.051Z,14.50
2019-03-13T18:18:10.224Z,14.50
2019-03-13T18:20:39.507Z,14.50
2019-03-13T18:23:08.909Z,14.50
2019-03-13T18:25:38.275Z,14.40
2019-03-13T18:28:07.614Z,14.40
2019-03-13T18:30:36.980Z,14.20
2019-03-13T18:33:06.458Z,14.10
2019-03-13T18:35:35.861Z,14.10
2019-03-13T18:38:05.369Z,14.10
2019-03-13T18:40:34.924Z,14.10
2019-03-13T18:43:05.321Z,14.10
2019-03-13T18:45:34.664Z,14.10
2019-03-13T18:48:04.479Z,14.10
2019-03-13T18:50:33.801Z,14.20
2019-03-13T18:53:03.400Z,14.10
2019-03-13T18:55:32.717Z,13.90
2019-03-13T18:58:02.056Z,14.00
2019-03-13T19:00:31.440Z,13.90
2019-03-13T19:03:00.768Z,13.80
2019-03-13T19:05:30.541Z,13.70
2019-03-13T19:07:59.883Z,13.70
2019-03-13T19:10:29.179Z,13.90
2019-03-13T19:12:59.436Z,14.10
2019-03-13T19:15:30.363Z,14.10
2019-03-13T19:18:01.002Z,14.30
2019-03-13T19:20:31.624Z,14.40
2019-03-13T19:23:00.979Z,14.20
2019-03-13T19:25:30.309Z,13.70
2019-03-13T19:27:59.695Z,13.50
2019-03-13T19:30:30.458Z,13.50
2019-03-13T19:33:00.900Z,13.50
2019-03-13T19:35:30.562Z,13.70
2019-03-13T19:38:00.720Z,13.90
2019-03-13T19:40:30.121Z,14.00
2019-03-13T19:42:59.422Z,14.00
2019-03-13T19:45:34.962Z,14.10
2019-03-13T19:48:04.712Z,14.10
2019-03-13T19:50:34.007Z,13.70
2019-03-13T19:53:03.508Z,13.40
2019-03-13T19:55:33.175Z,13.40
2019-03-13T19:58:02.492Z,13.40
2019-03-13T20:00:31.859Z,13.50
2019-03-13T20:03:02.548Z,13.60
2019-03-13T20:05:44.200Z,13.30
2019-03-13T20:08:02.997Z,12.90
2019-03-13T20:10:32.843Z,13.10
2019-03-13T20:13:02.118Z,13.20
2019-03-13T20:15:32.065Z,13.30
2019-03-13T20:18:02.562Z,13.20
2019-03-13T20:20:31.849Z,13.10
2019-03-13T20:23:01.988Z,13.30
2019-03-13T20:25:31.292Z,13.10
2019-03-13T20:28:00.570Z,12.90
2019-03-13T20:30:30.142Z,12.80
2019-03-13T20:32:59.556Z,12.30
2019-03-13T20:35:28.857Z,11.90
2019-03-13T20:37:58.189Z,11.50
2019-03-13T20:40:27.625Z,11.10
2019-03-13T20:42:57.583Z,11.40
2019-03-13T20:45:27.112Z,11.30
2019-03-13T20:47:56.780Z,11.40
2019-03-13T20:50:36.593Z,11.90
2019-03-13T20:52:59.759Z,12.30
2019-03-13T20:55:29.047Z,12.40
2019-03-13T20:57:58.418Z,12.40
2019-03-13T21:00:28.226Z,12.50
2019-03-13T21:02:57.566Z,12.60
2019-03-13T21:05:26.902Z,12.50
2019-03-13T21:07:56.226Z,11.80
2019-03-13T21:10:25.637Z,11.90
2019-03-13T21:12:56.412Z,11.80
2019-03-13T21:15:25.921Z,11.70
2019-03-13T21:17:55.577Z,11.60
2019-03-13T21:20:24.923Z,11.50
2019-03-13T21:22:54.278Z,11.40
2019-03-13T21:25:23.551Z,11.20
2019-03-13T21:27:52.832Z,11.20
2019-03-13T21:30:23.515Z,11.40
2019-03-13T21:32:52.778Z,11.80
2019-03-13T21:35:22.152Z,12.10
2019-03-13T21:37:51.529Z,12.10
2019-03-13T21:40:21.399Z,12.40
2019-03-13T21:42:53.961Z,12.50
2019-03-13T21:45:23.168Z,12.70
2019-03-13T21:47:53.216Z,12.60
2019-03-13T21:50:23.680Z,12.30
2019-03-13T21:52:53.430Z,12.10
2019-03-13T21:55:22.918Z,12.20
2019-03-13T21:57:52.561Z,12.40
2019-03-13T22:00:23.375Z,12.70
2019-03-13T22:02:52.670Z,12.90
2019-03-13T22:05:26.329Z,12.40
2019-03-13T22:07:53.268Z,12.50
2019-03-13T22:10:22.850Z,12.20
2019-03-13T22:13:11.295Z,12.40
2019-03-13T22:15:40.702Z,12.50
2019-03-13T22:18:10.003Z,12.80
2019-03-13T22:20:39.381Z,12.70
2019-03-13T22:23:08.922Z,12.70
2019-03-13T22:25:38.432Z,12.80
2019-03-13T22:28:07.722Z,12.60
2019-03-13T22:30:37.218Z,12.60
2019-03-13T22:33:06.585Z,12.70
2019-03-13T22:35:35.935Z,12.70
2019-03-13T22:38:05.374Z,12.70
2019-03-13T22:40:35.001Z,12.00
2019-03-13T22:43:04.738Z,11.70
2019-03-13T22:45:34.404Z,11.70
2019-03-13T22:48:03.801Z,12.00
2019-03-13T22:50:33.310Z,11.90
2019-03-13T22:53:02.650Z,11.90
2019-03-13T22:55:31.827Z,11.90
2019-03-13T22:58:01.666Z,12.10
2019-03-13T23:01:06.232Z,12.20
2019-03-13T23:03:35.447Z,12.00
2019-03-13T23:06:05.143Z,11.60
2019-03-13T23:08:34.505Z,11.60
2019-03-13T23:11:03.746Z,11.80
2019-03-13T23:13:33.057Z,11.60
2019-03-13T23:16:02.416Z,11.90
2019-03-13T23:18:31.738Z,11.50
2019-03-13T23:21:01.051Z,11.20
2019-03-13T23:23:30.306Z,10.80
2019-03-13T23:25:59.899Z,10.70
2019-03-13T23:28:29.161Z,11.00
2019-03-13T23:30:58.785Z,11.00
2019-03-13T23:33:28.113Z,11.40
2019-03-13T23:35:57.426Z,11.40
2019-03-13T23:38:26.767Z,11.30
2019-03-13T23:40:56.155Z,11.50
2019-03-13T23:43:25.734Z,11.20
2019-03-13T23:45:55.021Z,11.20
2019-03-13T23:48:24.599Z,10.90
2019-03-13T23:50:53.880Z,10.80
2019-03-13T23:53:23.196Z,10.70
2019-03-13T23:55:52.480Z,10.70
2019-03-13T23:58:21.761Z,10.60
